Agapi S — D5AR6 — position and weather

sailwx.info

Track history (hours):
 
Tides and Currents Weather Stations Pressure Air Temp Water Temp Dewpoint Dewpoint Depression Visibility Wind Speed Wind Dir Waves Ship Positions

Agapi S

Last reported at 2017-Nov-18 03:59 UTC. Time now 2017-Nov-19 21:50 UTC.
Position N 37°46' E 025°47'.

Length 207 m; draft 6.3 m.

Type: Ship. MMSI: 636015430.

Date/timePositionNaut miles runAvg speedWind from/ knotsBaromVisibWave heightAir tempDewpointWater temp
2017-Nov-18 03:59N 37°46' E 025°47'714.1
2017-Nov-18 03:30N 37°39' E 025°48'713.6
2017-Nov-18 03:00N 37°33' E 025°50'713.5
2017-Nov-18 02:31N 37°26' E 025°52'37313.1
2017-Nov-16 22:01N 32°42' E 030°48'113.0
2017-Nov-16 21:59N 32°41' E 030°48'713.2
2017-Nov-16 21:28N 32°36' E 030°53'1413.5
2017-Nov-16 20:28N 32°26' E 031°03'6212.9
2017-Nov-16 15:38N 31°36' E 031°47'8 0.9
2017-Nov-16 07:05N 31°28' E 031°46'0 0.0
2017-Nov-16 04:26N 31°28' E 031°46'  
Track history (hours):
 
Tides and Currents Weather Stations Pressure Air Temp Water Temp Dewpoint Dewpoint Depression Visibility Wind Speed Wind Dir Waves Ship Positions

Agapi S

Last reported at 2017-Nov-18 03:59 UTC. Time now 2017-Nov-19 21:50 UTC.
Position N 37°46' E 025°47'.

Length 207 m; draft 6.3 m.

Type: Ship. MMSI: 636015430.

Date/timePositionNaut miles runAvg speedWind from/ knotsBaromVisibWave heightAir tempDewpointWater temp
2017-Nov-18 03:59N 37°46' E 025°47'714.1
2017-Nov-18 03:30N 37°39' E 025°48'713.6
2017-Nov-18 03:00N 37°33' E 025°50'713.5
2017-Nov-18 02:31N 37°26' E 025°52'37313.1
2017-Nov-16 22:01N 32°42' E 030°48'113.0
2017-Nov-16 21:59N 32°41' E 030°48'713.2
2017-Nov-16 21:28N 32°36' E 030°53'1413.5
2017-Nov-16 20:28N 32°26' E 031°03'6212.9
2017-Nov-16 15:38N 31°36' E 031°47'8 0.9
2017-Nov-16 07:05N 31°28' E 031°46'0 0.0
2017-Nov-16 04:26N 31°28' E 031°46'  

Dump ship's entire track history